Time;durP1;ratioP1;P1;durP2;ratioP2;P2;SDS_P1;SDS_P2;PMS_P1;PMS_P2;Temp;Humidity;BMP_temperature;BMP_pressure;BME280_temperature;BME280_humidity;BME280_pressure;Samples;Min_cycle;Max_cycle;Signal;HPM_P1;HPM_P2
2021/10/26 00:01:21;;;;;;;1999.90;999.90;;;1.10;99.90;;;;;;5101065;28;20031;-85
2021/10/26 00:03:47;;;;;;;1999.90;999.90;;;1.10;99.90;;;;;;5101120;28;20035;-84
2021/10/26 00:06:13;;;;;;;1999.90;999.90;;;1.10;99.90;;;;;;5100965;28;20440;-86
2021/10/26 00:08:39;;;;;;;1999.90;999.90;;;1.10;99.90;;;;;;5101039;28;20103;-84
2021/10/26 00:11:05;;;;;;;1999.90;999.90;;;1.10;99.90;;;;;;5100852;28;20060;-85
2021/10/26 00:13:31;;;;;;;1999.90;999.90;;;1.00;99.90;;;;;;5100892;28;20034;-85
2021/10/26 00:15:57;;;;;;;1999.90;999.90;;;1.00;99.90;;;;;;5101060;28;20374;-84
2021/10/26 00:18:22;;;;;;;1999.90;999.90;;;1.00;99.90;;;;;;5100644;28;20027;-85
2021/10/26 00:20:48;;;;;;;1999.90;999.90;;;1.00;99.90;;;;;;5100488;28;20024;-85
2021/10/26 00:23:14;;;;;;;1999.90;999.90;;;0.90;99.90;;;;;;5100611;28;20607;-83
2021/10/26 00:25:40;;;;;;;1999.90;999.90;;;1.00;99.90;;;;;;5100476;28;20032;-84
2021/10/26 00:28:06;;;;;;;1999.90;999.90;;;1.00;99.90;;;;;;5100976;28;20028;-84
2021/10/26 00:30:32;;;;;;;1999.90;999.90;;;1.00;99.90;;;;;;5100613;28;20081;-84
2021/10/26 00:32:58;;;;;;;1999.90;999.90;;;1.00;99.90;;;;;;5100695;28;20031;-84
2021/10/26 00:35:28;;;;;;;1999.90;999.90;;;0.90;99.90;;;;;;5100587;28;20470;-85
2021/10/26 00:37:55;;;;;;;1999.90;999.90;;;0.90;99.90;;;;;;5099780;28;20023;-83
2021/10/26 00:40:22;;;;;;;1999.90;999.90;;;0.90;99.90;;;;;;5100482;28;20039;-86
2021/10/26 00:42:48;;;;;;;1999.90;999.90;;;0.80;99.90;;;;;;5100478;28;20086;-85
2021/10/26 00:45:13;;;;;;;1999.90;999.90;;;0.80;99.90;;;;;;5100039;28;20028;-86
2021/10/26 00:47:39;;;;;;;1999.90;999.90;;;0.80;99.90;;;;;;5100518;28;20028;-85
2021/10/26 00:50:06;;;;;;;1999.90;999.90;;;1.10;99.90;;;;;;5099316;28;20138;-83
2021/10/26 00:52:32;;;;;;;1999.90;999.90;;;0.80;99.90;;;;;;5099559;28;20024;-83
2021/10/26 00:54:59;;;;;;;1999.90;999.90;;;0.80;99.90;;;;;;5099320;28;20084;-85
2021/10/26 00:57:28;;;;;;;1999.90;999.90;;;0.70;99.90;;;;;;5099877;28;20036;-85
2021/10/26 00:59:55;;;;;;;1999.90;999.90;;;0.60;99.90;;;;;;5099475;28;20020;-84
2021/10/26 01:02:21;;;;;;;1999.90;999.90;;;0.70;99.90;;;;;;5099597;28;20031;-86
2021/10/26 01:04:47;;;;;;;1999.90;999.90;;;0.60;99.90;;;;;;5099858;28;20038;-86
2021/10/26 01:07:13;;;;;;;1999.90;999.90;;;0.50;99.90;;;;;;5099480;28;20024;-86
2021/10/26 01:09:39;;;;;;;1999.90;999.90;;;0.50;99.90;;;;;;5099484;28;20059;-84
2021/10/26 01:12:06;;;;;;;1999.90;999.90;;;0.50;99.90;;;;;;5099768;28;20031;-86
2021/10/26 01:14:32;;;;;;;1999.90;999.90;;;0.60;99.90;;;;;;5099362;28;20352;-85
2021/10/26 01:17:05;;;;;;;1999.90;999.90;;;0.70;99.90;;;;;;5099525;28;20043;-84
2021/10/26 01:19:47;;;;;;;1999.90;999.90;;;0.60;99.90;;;;;;5117581;28;20031;-85
2021/10/26 01:22:14;;;;;;;1999.90;999.90;;;0.60;99.90;;;;;;5099526;28;20486;-84
2021/10/26 01:24:40;;;;;;;1999.90;999.90;;;0.50;99.90;;;;;;5099286;28;20077;-84
2021/10/26 01:27:06;;;;;;;1999.90;999.90;;;0.60;99.90;;;;;;5098992;28;20478;-86
2021/10/26 01:29:32;;;;;;;1999.90;999.90;;;0.70;99.90;;;;;;5098896;28;20050;-83
2021/10/26 01:32:01;;;;;;;1999.90;999.90;;;0.60;99.90;;;;;;5099006;28;20028;-84
2021/10/26 01:34:27;;;;;;;1999.90;999.90;;;0.60;99.90;;;;;;5098186;28;20049;-84
2021/10/26 01:36:53;;;;;;;1999.90;999.90;;;0.60;99.90;;;;;;5098677;28;20024;-84
2021/10/26 01:39:18;;;;;;;1999.90;999.90;;;0.50;99.90;;;;;;5098644;28;20386;-85
2021/10/26 01:41:44;;;;;;;1999.90;999.90;;;0.50;99.90;;;;;;5098481;28;20547;-84
2021/10/26 01:44:09;;;;;;;1999.90;999.90;;;0.40;99.90;;;;;;5098878;28;20039;-85
2021/10/26 01:46:35;;;;;;;1999.90;999.90;;;0.40;99.90;;;;;;5099035;28;20039;-86
2021/10/26 01:49:01;;;;;;;1999.90;999.90;;;0.50;99.90;;;;;;5098327;28;20096;-86
2021/10/26 01:51:26;;;;;;;1999.90;999.90;;;0.40;99.90;;;;;;5098948;28;20072;-86
2021/10/26 01:53:52;;;;;;;1999.90;999.90;;;0.50;99.90;;;;;;5098689;28;20031;-84
2021/10/26 01:56:18;;;;;;;1999.90;999.90;;;0.40;99.90;;;;;;5098790;28;20028;-84
2021/10/26 01:58:44;;;;;;;1999.90;999.90;;;0.80;99.90;;;;;;5098557;28;20027;-84
2021/10/26 02:01:09;;;;;;;1999.90;999.90;;;0.50;99.90;;;;;;5099124;28;20035;-85
2021/10/26 02:03:35;;;;;;;1999.90;999.90;;;0.40;99.90;;;;;;5098785;28;20066;-85
2021/10/26 02:06:03;;;;;;;1999.90;999.90;;;0.50;99.90;;;;;;5100211;28;20020;-86
2021/10/26 02:08:30;;;;;;;1999.90;999.90;;;0.40;99.90;;;;;;5103048;28;20032;-84
2021/10/26 02:10:56;;;;;;;1999.90;999.90;;;0.40;99.90;;;;;;5102940;28;20024;-84
2021/10/26 02:13:21;;;;;;;1999.90;999.90;;;0.30;99.90;;;;;;5102663;28;20077;-84
2021/10/26 02:15:47;;;;;;;1999.90;999.90;;;0.40;99.90;;;;;;5102635;28;20094;-85
2021/10/26 02:18:13;;;;;;;1999.90;999.90;;;0.40;99.90;;;;;;5102473;28;20024;-85
2021/10/26 02:20:39;;;;;;;1999.90;999.90;;;0.30;99.90;;;;;;5102556;28;20023;-85
2021/10/26 02:23:04;;;;;;;1999.90;999.90;;;0.20;99.90;;;;;;5102925;28;20031;-85
2021/10/26 02:25:31;;;;;;;1999.90;999.90;;;0.20;99.90;;;;;;5102761;28;20016;-84
2021/10/26 02:27:57;;;;;;;1999.90;999.90;;;0.20;99.90;;;;;;5102821;28;20123;-84
2021/10/26 02:30:23;;;;;;;1999.90;999.90;;;0.20;99.90;;;;;;5102355;28;20049;-85
2021/10/26 02:32:48;;;;;;;1999.90;999.90;;;0.20;99.90;;;;;;5102622;28;20019;-86
2021/10/26 02:35:14;;;;;;;1999.90;999.90;;;0.20;99.90;;;;;;5102536;28;20024;-85
2021/10/26 02:37:40;;;;;;;1999.90;999.90;;;0.20;99.90;;;;;;5102139;28;20092;-85
2021/10/26 02:40:07;;;;;;;1999.90;999.90;;;0.20;99.90;;;;;;5102327;28;20076;-85
2021/10/26 02:42:32;;;;;;;1999.90;999.90;;;0.20;99.90;;;;;;5098466;28;20032;-87
2021/10/26 02:44:58;;;;;;;1999.90;999.90;;;0.30;99.90;;;;;;5093647;28;20043;-86
2021/10/26 02:47:24;;;;;;;1999.90;999.90;;;0.30;99.90;;;;;;5101027;28;20073;-84
2021/10/26 02:49:49;;;;;;;1999.90;999.90;;;0.20;99.90;;;;;;5102481;28;20063;-86
2021/10/26 02:52:15;;;;;;;1999.90;999.90;;;0.20;99.90;;;;;;5102280;28;20526;-85
2021/10/26 02:54:41;;;;;;;1999.90;999.90;;;0.20;99.90;;;;;;5101967;28;20027;-85
2021/10/26 02:57:06;;;;;;;1999.90;999.90;;;0.30;99.90;;;;;;5102360;28;20460;-85
2021/10/26 02:59:32;;;;;;;1999.90;999.90;;;0.10;99.90;;;;;;5101730;28;20030;-87
2021/10/26 03:01:58;;;;;;;1999.90;999.90;;;0.20;99.90;;;;;;5102071;28;20031;-83
2021/10/26 03:04:23;;;;;;;1999.90;999.90;;;0.30;99.90;;;;;;5101921;28;20122;-84
2021/10/26 03:06:49;;;;;;;1999.90;999.90;;;0.20;99.90;;;;;;5102111;28;20039;-85
2021/10/26 03:09:15;;;;;;;1999.90;999.90;;;0.10;99.90;;;;;;5101960;28;20031;-84
2021/10/26 03:11:40;;;;;;;1999.90;999.90;;;0.10;99.90;;;;;;5119977;28;20047;-85
2021/10/26 03:14:06;;;;;;;1999.90;999.90;;;0.00;99.90;;;;;;5101477;28;20032;-85
2021/10/26 03:16:32;;;;;;;1999.90;999.90;;;0.00;99.90;;;;;;5101585;28;20038;-84
2021/10/26 03:18:58;;;;;;;1999.90;999.90;;;0.00;99.90;;;;;;5100939;28;20019;-83
2021/10/26 03:21:24;;;;;;;1999.90;999.90;;;-0.10;99.90;;;;;;5119694;28;20507;-85
2021/10/26 03:23:50;;;;;;;1999.90;999.90;;;-0.10;99.90;;;;;;5101150;28;20043;-83
2021/10/26 03:26:16;;;;;;;1999.90;999.90;;;-0.10;99.90;;;;;;5101205;28;20055;-85
2021/10/26 03:28:41;;;;;;;1999.90;999.90;;;-0.10;99.90;;;;;;5101685;28;20024;-85
2021/10/26 03:31:07;;;;;;;1999.90;999.90;;;-0.10;99.90;;;;;;5100645;28;20554;-84
2021/10/26 03:33:33;;;;;;;1999.90;999.90;;;-0.10;99.90;;;;;;5101093;28;20045;-83
2021/10/26 03:36:04;;;;;;;1999.90;999.90;;;-0.20;99.90;;;;;;5101212;28;20027;-84
2021/10/26 03:38:31;;;;;;;1999.90;999.90;;;-0.10;99.90;;;;;;5100494;28;20489;-85
2021/10/26 03:40:57;;;;;;;1999.90;999.90;;;-0.20;99.90;;;;;;5100448;28;20474;-84
2021/10/26 03:43:23;;;;;;;1999.90;999.90;;;-0.20;99.90;;;;;;5100418;28;20042;-84
2021/10/26 03:45:48;;;;;;;1999.90;999.90;;;-0.30;99.90;;;;;;5101242;28;20024;-85
2021/10/26 03:48:14;;;;;;;1999.90;999.90;;;-0.20;99.90;;;;;;5100327;28;20047;-87
2021/10/26 03:50:40;;;;;;;1999.90;999.90;;;-0.20;99.90;;;;;;5100677;28;20055;-84
2021/10/26 03:53:05;;;;;;;1999.90;999.90;;;-0.20;99.90;;;;;;5101012;28;20111;-84
2021/10/26 03:55:31;;;;;;;1999.90;999.90;;;-0.10;99.90;;;;;;5100706;28;20481;-86
2021/10/26 03:57:57;;;;;;;1999.90;999.90;;;-0.20;99.90;;;;;;5100391;28;20076;-86
2021/10/26 04:00:23;;;;;;;1999.90;999.90;;;0.00;99.90;;;;;;5100351;28;20023;-83
2021/10/26 04:02:50;;;;;;;1999.90;999.90;;;0.20;99.90;;;;;;5100065;28;20038;-83
2021/10/26 04:05:23;;;;;;;1999.90;999.90;;;-0.10;99.90;;;;;;5100055;28;20024;-83
2021/10/26 04:08:05;;;;;;;1999.90;999.90;;;-0.20;99.90;;;;;;5100072;28;20844;-83
2021/10/26 04:10:35;;;;;;;1999.90;999.90;;;-0.10;99.90;;;;;;5100394;28;20016;-86
2021/10/26 04:13:02;;;;;;;1999.90;999.90;;;0.00;99.90;;;;;;5100245;28;20080;-84
2021/10/26 04:15:29;;;;;;;1999.90;999.90;;;-0.20;99.90;;;;;;5100423;28;20027;-86
2021/10/26 04:17:55;;;;;;;1999.90;999.90;;;-0.30;99.90;;;;;;5099964;28;20077;-84
2021/10/26 04:20:21;;;;;;;1999.90;999.90;;;-0.30;99.90;;;;;;5100345;28;20024;-85
2021/10/26 04:22:46;;;;;;;1999.90;999.90;;;-0.30;99.90;;;;;;5099787;28;20027;-84
2021/10/26 04:25:12;;;;;;;1999.90;999.90;;;-0.30;99.90;;;;;;5099713;28;20024;-86
2021/10/26 04:27:38;;;;;;;1999.90;999.90;;;-0.30;99.90;;;;;;5099682;28;20015;-86
2021/10/26 04:30:04;;;;;;;1999.90;999.90;;;-0.30;99.90;;;;;;5098452;28;20027;-84
2021/10/26 04:32:31;;;;;;;1999.90;999.90;;;-0.30;99.90;;;;;;5099439;28;20028;-84
2021/10/26 04:34:57;;;;;;;1999.90;999.90;;;-0.20;99.90;;;;;;5100130;28;20457;-85
2021/10/26 04:37:22;;;;;;;1999.90;999.90;;;-0.20;99.90;;;;;;5099779;28;20073;-86
2021/10/26 04:39:48;;;;;;;1999.90;999.90;;;-0.30;99.90;;;;;;5099800;28;20509;-85
2021/10/26 04:42:14;;;;;;;1999.90;999.90;;;-0.40;99.90;;;;;;5099808;28;20024;-84
2021/10/26 04:44:39;;;;;;;1999.90;999.90;;;-0.40;99.90;;;;;;5099310;28;20040;-85
2021/10/26 04:47:05;;;;;;;1999.90;999.90;;;-0.50;99.90;;;;;;5099648;28;20023;-85
2021/10/26 04:49:32;;;;;;;1999.90;999.90;;;-0.20;99.90;;;;;;5099308;28;20047;-85
2021/10/26 04:51:58;;;;;;;1999.90;999.90;;;-0.40;99.90;;;;;;5099538;28;20030;-85
2021/10/26 04:54:23;;;;;;;1999.90;999.90;;;-0.50;99.90;;;;;;5099423;28;20530;-85
2021/10/26 04:56:49;;;;;;;1999.90;999.90;;;-0.50;99.90;;;;;;5099184;28;20478;-85
2021/10/26 04:59:15;;;;;;;1999.90;999.90;;;-0.40;99.90;;;;;;5098926;28;20028;-83
2021/10/26 05:01:40;;;;;;;1999.90;999.90;;;-0.50;99.90;;;;;;5098268;28;20360;-83
2021/10/26 05:04:06;;;;;;;1999.90;999.90;;;-0.50;99.90;;;;;;5098186;28;20047;-84
2021/10/26 05:06:32;;;;;;;1999.90;999.90;;;-0.50;99.90;;;;;;5098035;28;20032;-84
2021/10/26 05:08:57;;;;;;;1999.90;999.90;;;-0.40;99.90;;;;;;5098166;28;20035;-84
2021/10/26 05:11:23;;;;;;;1999.90;999.90;;;-0.60;99.90;;;;;;5098033;28;20477;-84
2021/10/26 05:13:50;;;;;;;1999.90;999.90;;;-0.50;99.90;;;;;;5098066;28;20024;-84
2021/10/26 05:16:15;;;;;;;1999.90;999.90;;;-0.50;99.90;;;;;;5098901;28;20065;-85
2021/10/26 05:18:45;;;;;;;1999.90;999.90;;;-0.40;99.90;;;;;;5098666;28;20031;-84
2021/10/26 05:21:15;;;;;;;1999.90;999.90;;;-0.60;99.90;;;;;;5099167;28;20024;-85
2021/10/26 05:23:45;;;;;;;1999.90;999.90;;;-0.50;99.90;;;;;;5099222;28;20084;-84
2021/10/26 05:26:11;;;;;;;1999.90;999.90;;;-0.50;99.90;;;;;;5098820;28;20024;-84
2021/10/26 05:28:37;;;;;;;1999.90;999.90;;;-0.60;99.90;;;;;;5099258;28;20019;-83
2021/10/26 05:31:03;;;;;;;1999.90;999.90;;;-0.50;99.90;;;;;;5098998;28;20076;-84
2021/10/26 05:33:29;;;;;;;1999.90;999.90;;;-0.60;99.90;;;;;;5098871;28;20058;-82
2021/10/26 05:35:55;;;;;;;1999.90;999.90;;;-0.70;99.90;;;;;;5097927;28;20048;-84
2021/10/26 05:38:20;;;;;;;1999.90;999.90;;;-0.70;99.90;;;;;;5099171;28;20033;-79
2021/10/26 05:40:46;;;;;;;1999.90;999.90;;;-0.60;99.90;;;;;;5100934;28;20022;-84
2021/10/26 05:43:12;;;;;;;1999.90;999.90;;;-0.50;99.90;;;;;;5097050;28;20042;-83
2021/10/26 05:45:44;;;;;;;1999.90;999.90;;;0.70;99.90;;;;;;5097103;28;20024;-83
2021/10/26 05:48:11;;;;;;;1999.90;999.90;;;0.40;99.90;;;;;;5097348;28;20066;-83
2021/10/26 05:50:36;;;;;;;1999.90;999.90;;;0.10;99.90;;;;;;5097139;28;20498;-85
2021/10/26 05:53:02;;;;;;;1999.90;999.90;;;-0.10;99.90;;;;;;5097246;28;20032;-84
2021/10/26 05:55:28;;;;;;;1999.90;999.90;;;-0.20;99.90;;;;;;5097632;28;20081;-84
2021/10/26 05:57:53;;;;;;;1999.90;999.90;;;-0.30;99.90;;;;;;5097596;28;20024;-82
2021/10/26 06:00:19;;;;;;;1999.90;999.90;;;-0.40;99.90;;;;;;5097116;28;20115;-84
2021/10/26 06:02:45;;;;;;;1999.90;999.90;;;-0.50;99.90;;;;;;5097707;28;20043;-82
2021/10/26 06:05:11;;;;;;;1999.90;999.90;;;-0.50;99.90;;;;;;5097457;28;20027;-84
2021/10/26 06:07:36;;;;;;;1999.90;999.90;;;-0.50;99.90;;;;;;5097173;28;20031;-85
2021/10/26 06:10:04;;;;;;;1999.90;999.90;;;-0.60;99.90;;;;;;5097111;28;20035;-85
2021/10/26 06:12:31;;;;;;;1999.90;999.90;;;-0.60;99.90;;;;;;5097221;28;20024;-83
2021/10/26 06:14:57;;;;;;;1999.90;999.90;;;-0.60;99.90;;;;;;5097276;28;20028;-83
2021/10/26 06:17:24;;;;;;;1999.90;999.90;;;-0.60;99.90;;;;;;5097116;28;20026;-85
2021/10/26 06:19:50;;;;;;;1999.90;999.90;;;-0.60;99.90;;;;;;5115432;28;20024;-83
2021/10/26 06:22:16;;;;;;;1999.90;999.90;;;-0.50;99.90;;;;;;5115810;28;20038;-82
2021/10/26 06:24:46;;;;;;;1999.90;999.90;;;-0.40;99.90;;;;;;5114995;28;20453;-85
2021/10/26 06:27:12;;;;;;;1999.90;999.90;;;-0.30;99.90;;;;;;5097333;28;20026;-83
2021/10/26 06:29:38;;;;;;;1999.90;999.90;;;-0.20;99.90;;;;;;5096849;28;20110;-84
2021/10/26 06:32:04;;;;;;;1999.90;999.90;;;0.00;99.90;;;;;;5096738;28;20031;-83
2021/10/26 06:34:29;;;;;;;1999.90;999.90;;;0.00;99.90;;;;;;5096253;28;20028;-83
2021/10/26 06:36:55;;;;;;;1999.90;999.90;;;0.10;99.90;;;;;;5096615;28;20023;-84
2021/10/26 06:39:21;;;;;;;1999.90;999.90;;;0.20;99.90;;;;;;5097210;28;20107;-83
2021/10/26 06:41:51;;;;;;;1999.90;999.90;;;0.40;99.90;;;;;;5096530;28;20390;-82
2021/10/26 06:44:16;;;;;;;1999.90;999.90;;;0.40;99.90;;;;;;5096866;28;20035;-84
2021/10/26 06:46:43;;;;;;;1999.90;999.90;;;0.50;99.90;;;;;;5096572;28;20026;-81
2021/10/26 06:49:09;;;;;;;1999.90;999.90;;;0.60;99.90;;;;;;5097126;28;20048;-83
2021/10/26 06:51:35;;;;;;;1999.90;999.90;;;0.80;99.90;;;;;;5097347;28;20019;-83
2021/10/26 06:54:01;;;;;;;1999.90;999.90;;;0.80;99.90;;;;;;5100027;28;20023;-83
2021/10/26 06:56:28;;;;;;;1999.90;999.90;;;0.80;99.90;;;;;;5101271;28;20114;-83
2021/10/26 06:58:54;;;;;;;1999.90;999.90;;;0.90;99.90;;;;;;5100602;28;20053;-83
2021/10/26 07:01:20;;;;;;;1999.90;999.90;;;1.20;99.90;;;;;;5100671;28;20076;-86
2021/10/26 07:03:46;;;;;;;1999.90;999.90;;;1.20;99.90;;;;;;5100481;28;20071;-85
2021/10/26 07:06:11;;;;;;;1999.90;999.90;;;1.30;99.90;;;;;;5100906;28;20024;-85
2021/10/26 07:08:41;;;;;;;1999.90;999.90;;;1.40;99.90;;;;;;5100393;28;20418;-84
2021/10/26 07:11:07;;;;;;;1999.90;999.90;;;1.60;99.90;;;;;;5100698;28;20031;-85
2021/10/26 07:13:38;;;;;;;1999.90;999.90;;;1.60;99.90;;;;;;5100727;28;20030;-83
2021/10/26 07:16:05;;;;;;;1999.90;999.90;;;1.80;99.90;;;;;;5100146;28;20119;-83
2021/10/26 07:18:30;;;;;;;1999.90;999.90;;;1.90;99.90;;;;;;5100291;28;20020;-83
2021/10/26 07:20:56;;;;;;;1999.90;999.90;;;2.00;99.90;;;;;;5118095;28;20360;-84
2021/10/26 07:23:22;;;;;;;1999.90;999.90;;;2.10;99.90;;;;;;5100254;28;20036;-84
2021/10/26 07:25:48;;;;;;;1999.90;999.90;;;2.30;99.90;;;;;;5100381;28;20026;-84
2021/10/26 07:28:14;;;;;;;1999.90;999.90;;;2.40;99.90;;;;;;5099787;28;20390;-82
2021/10/26 07:30:44;;;;;;;1999.90;999.90;;;2.50;99.90;;;;;;5099003;28;20024;-85
2021/10/26 07:33:22;;;;;;;1999.90;999.90;;;2.70;99.90;;;;;;5098905;28;20031;-81
2021/10/26 07:35:51;;;;;;;1999.90;999.90;;;2.80;99.90;;;;;;5099313;28;20455;-84
2021/10/26 07:38:28;;;;;;;1999.90;999.90;;;3.00;99.90;;;;;;5099182;28;20030;-81
2021/10/26 07:40:56;;;;;;;1999.90;999.90;;;3.30;99.90;;;;;;5099093;28;20073;-84
2021/10/26 07:43:22;;;;;;;1999.90;999.90;;;3.40;99.90;;;;;;5098579;28;20031;-83
2021/10/26 07:45:48;;;;;;;1999.90;999.90;;;3.60;99.90;;;;;;5098368;28;20030;-85
2021/10/26 07:48:14;;;;;;;1999.90;999.90;;;3.80;99.90;;;;;;5098476;28;20028;-82
2021/10/26 07:50:40;;;;;;;1999.90;999.90;;;4.00;99.90;;;;;;5098485;28;20023;-81
2021/10/26 07:53:05;;;;;;;1999.90;999.90;;;4.20;99.90;;;;;;5099039;28;20065;-82
2021/10/26 07:55:31;;;;;;;1999.90;999.90;;;4.30;99.90;;;;;;5097506;28;20024;-84
2021/10/26 07:57:57;;;;;;;1999.90;999.90;;;4.50;99.90;;;;;;5097588;28;20031;-82
2021/10/26 08:00:24;;;;;;;1999.90;999.90;;;4.60;99.90;;;;;;5097428;28;20024;-84
2021/10/26 08:02:50;;;;;;;1999.90;999.90;;;4.80;99.90;;;;;;5115402;28;20023;-82
2021/10/26 08:05:19;;;;;;;1999.90;999.90;;;4.90;99.90;;;;;;5096862;28;20302;-82
2021/10/26 08:07:45;;;;;;;1999.90;999.90;;;5.00;99.90;;;;;;5097069;28;20042;-86
2021/10/26 08:10:11;;;;;;;1999.90;999.90;;;5.10;99.90;;;;;;5097088;28;20534;-84
2021/10/26 08:12:37;;;;;;;1999.90;999.90;;;5.30;99.90;;;;;;5096804;28;20020;-81
2021/10/26 08:15:03;;;;;;;1999.90;999.90;;;5.40;99.90;;;;;;5096889;28;20022;-82
2021/10/26 08:17:29;;;;;;;1999.90;999.90;;;5.50;99.90;;;;;;5096996;28;20028;-82
2021/10/26 08:19:54;;;;;;;1999.90;999.90;;;5.70;99.90;;;;;;5096931;28;20016;-84
2021/10/26 08:22:22;;;;;;;1999.90;999.90;;;5.80;99.90;;;;;;5096436;28;20023;-81
2021/10/26 08:24:52;;;;;;;1999.90;999.90;;;6.00;99.90;;;;;;5114088;28;20482;-81
2021/10/26 08:27:19;;;;;;;1999.90;999.90;;;6.10;99.90;;;;;;5095991;28;20489;-81
2021/10/26 08:29:52;;;;;;;1999.90;999.90;;;6.30;99.90;;;;;;5095781;28;20035;-80
2021/10/26 08:35:03;;;;;;;1999.90;999.90;;;6.50;99.90;;;;;;5114461;28;20529;-81
2021/10/26 08:37:29;;;;;;;1999.90;999.90;;;6.60;99.90;;;;;;5096622;28;20031;-81
2021/10/26 08:39:55;;;;;;;1999.90;999.90;;;6.70;99.90;;;;;;5096668;28;20034;-82
2021/10/26 08:42:21;;;;;;;1999.90;999.90;;;6.80;99.90;;;;;;5097114;28;20110;-84
2021/10/26 08:44:49;;;;;;;1999.90;999.90;;;7.00;99.90;;;;;;5097157;28;20035;-83
2021/10/26 08:47:16;;;;;;;1999.90;999.90;;;7.10;99.90;;;;;;5097399;28;20047;-85
2021/10/26 08:49:46;;;;;;;1999.90;999.90;;;7.30;99.90;;;;;;5096916;28;20047;-82
2021/10/26 08:52:13;;;;;;;1999.90;999.90;;;7.40;99.40;;;;;;5115021;28;20019;-84
2021/10/26 08:54:39;;;;;;;1999.90;999.90;;;7.40;98.80;;;;;;5096543;28;20312;-82
2021/10/26 08:57:05;;;;;;;1999.90;999.90;;;7.50;98.50;;;;;;5114823;28;20055;-79
2021/10/26 08:59:31;;;;;;;1999.90;999.90;;;7.70;99.10;;;;;;5100958;28;20026;-82
2021/10/26 09:01:59;;;;;;;1999.90;999.90;;;7.90;98.60;;;;;;5100406;28;20028;-85
2021/10/26 09:04:36;;;;;;;1999.90;999.90;;;8.00;98.50;;;;;;5097219;28;20031;-82
2021/10/26 09:07:05;;;;;;;1999.90;999.90;;;8.10;98.50;;;;;;5099630;28;20030;-82
2021/10/26 09:09:34;;;;;;;1999.90;999.90;;;8.30;97.80;;;;;;5100139;28;20035;-83
2021/10/26 09:17:28;;;;;;;1999.90;999.90;;;8.90;97.60;;;;;;5115581;28;20100;-85
2021/10/26 09:19:57;;;;;;;1999.90;999.90;;;9.00;97.30;;;;;;5096937;28;20471;-84
2021/10/26 09:22:25;;;;;;;1999.90;999.90;;;9.20;96.90;;;;;;5095943;28;20024;-80
2021/10/26 09:25:04;;;;;;;1999.90;999.90;;;9.30;96.70;;;;;;5101029;28;20478;-79
2021/10/26 09:27:30;;;;;;;1999.90;999.90;;;9.40;96.30;;;;;;5112952;28;20015;-74
2021/10/26 09:30:06;;;;;;;1999.90;999.90;;;9.50;96.30;;;;;;5113446;28;20035;-81
2021/10/26 09:32:36;;;;;;;1999.90;999.90;;;9.60;96.20;;;;;;5095624;28;20463;-82
2021/10/26 09:35:13;;;;;;;1999.90;999.90;;;9.80;95.90;;;;;;5095560;28;20058;-80
2021/10/26 09:37:52;;;;;;;1999.90;999.90;;;9.90;94.90;;;;;;5095665;28;20483;-80
2021/10/26 09:40:18;;;;;;;1999.90;999.90;;;10.00;95.20;;;;;;5095700;28;20441;-80
2021/10/26 09:42:48;;;;;;;1999.90;999.90;;;10.20;94.70;;;;;;5113741;28;20099;-82
2021/10/26 09:45:26;;;;;;;1999.90;999.90;;;10.40;94.20;;;;;;5095264;28;20475;-83
2021/10/26 09:48:20;;;;;;;1999.90;999.90;;;10.50;93.10;;;;;;5095766;28;20024;-83
2021/10/26 09:50:45;;;;;;;1999.90;999.90;;;10.60;91.30;;;;;;5095034;28;20069;-81
2021/10/26 09:53:14;;;;;;;1999.90;999.90;;;10.60;89.40;;;;;;5094893;28;20024;-82
2021/10/26 09:55:47;;;;;;;1999.90;999.90;;;10.70;89.70;;;;;;5094930;28;20016;-81
2021/10/26 09:58:14;;;;;;;1999.90;999.90;;;10.80;90.00;;;;;;5095098;28;20424;-84
2021/10/26 10:00:42;;;;;;;1999.90;999.90;;;10.90;89.80;;;;;;5095042;28;20035;-79
2021/10/26 10:03:11;;;;;;;1999.90;999.90;;;11.10;89.30;;;;;;5094890;28;20067;-81
2021/10/26 10:05:50;;;;;;;1999.90;999.90;;;11.10;88.70;;;;;;5094906;28;20023;-82
2021/10/26 10:08:22;;;;;;;1999.90;999.90;;;11.20;88.70;;;;;;5113209;28;20510;-82
2021/10/26 10:10:52;;;;;;;1999.90;999.90;;;11.30;88.10;;;;;;5095028;28;20215;-82
2021/10/26 10:13:19;;;;;;;1999.90;999.90;;;11.30;88.00;;;;;;5094948;28;20020;-80
2021/10/26 10:15:46;;;;;;;1999.90;999.90;;;11.30;88.80;;;;;;5094760;28;20483;-80
2021/10/26 10:18:20;;;;;;;1999.90;999.90;;;11.40;88.50;;;;;;5094731;28;20032;-81
2021/10/26 10:20:52;;;;;;;1999.90;999.90;;;11.40;89.40;;;;;;5094969;28;20027;-83
2021/10/26 10:23:20;;;;;;;1999.90;999.90;;;11.50;89.40;;;;;;5094541;28;20648;-82
2021/10/26 10:25:49;;;;;;;1999.90;999.90;;;11.50;89.60;;;;;;5094356;28;20486;-81
2021/10/26 10:28:17;;;;;;;1999.90;999.90;;;11.50;89.20;;;;;;5114997;28;20039;-79
2021/10/26 10:30:43;;;;;;;1999.90;999.90;;;11.60;88.90;;;;;;5098663;28;20026;-81
2021/10/26 10:33:09;;;;;;;1999.90;999.90;;;11.60;88.00;;;;;;5098470;28;20024;-80
2021/10/26 10:35:35;;;;;;;1999.90;999.90;;;11.60;88.00;;;;;;5098600;28;20034;-80
2021/10/26 10:38:01;;;;;;;1999.90;999.90;;;11.70;87.30;;;;;;5098809;28;20031;-81
2021/10/26 10:40:30;;;;;;;1999.90;999.90;;;11.80;88.10;;;;;;5098417;28;20024;-81
2021/10/26 10:42:57;;;;;;;1999.90;999.90;;;11.90;87.40;;;;;;5098312;28;20088;-82
2021/10/26 10:45:32;;;;;;;1999.90;999.90;;;12.00;87.60;;;;;;5098574;28;20052;-81
2021/10/26 10:47:59;;;;;;;1999.90;999.90;;;12.10;87.70;;;;;;5116699;28;20015;-82
2021/10/26 10:50:37;;;;;;;1999.90;999.90;;;12.20;85.60;;;;;;5098788;28;20043;-81
2021/10/26 10:53:18;;;;;;;1999.90;999.90;;;12.10;86.20;;;;;;5098126;28;20046;-82
2021/10/26 10:55:47;;;;;;;1999.90;999.90;;;12.10;85.60;;;;;;5116378;28;20023;-81
2021/10/26 10:58:25;;;;;;;1999.90;999.90;;;12.20;85.90;;;;;;5098100;28;20015;-81
2021/10/26 11:01:11;;;;;;;1999.90;999.90;;;12.20;85.60;;;;;;5098012;28;20024;-79
2021/10/26 11:03:37;;;;;;;1999.90;999.90;;;12.20;86.10;;;;;;5097579;28;20035;-81
2021/10/26 11:06:03;;;;;;;1999.90;999.90;;;12.20;85.10;;;;;;5097839;28;20026;-80
2021/10/26 11:08:58;;;;;;;1999.90;999.90;;;12.20;85.60;;;;;;5097969;28;20028;-80
2021/10/26 11:11:23;;;;;;;1999.90;999.90;;;12.40;87.10;;;;;;5076109;28;20420;-82
2021/10/26 11:14:15;;;;;;;1999.90;999.90;;;12.40;86.50;;;;;;5115816;28;20110;-80
2021/10/26 11:16:41;;;;;;;1999.90;999.90;;;12.60;86.50;;;;;;5115792;28;20019;-81
2021/10/26 11:19:10;;;;;;;1999.90;999.90;;;12.60;85.70;;;;;;5116053;28;20386;-80
2021/10/26 11:21:36;;;;;;;1999.90;999.90;;;12.70;86.10;;;;;;5097981;28;20016;-82
2021/10/26 11:24:06;;;;;;;1999.90;999.90;;;12.70;85.40;;;;;;5115694;28;20039;-79
2021/10/26 11:26:35;;;;;;;1999.90;999.90;;;12.70;84.10;;;;;;5097609;28;20534;-80
2021/10/26 11:29:06;;;;;;;1999.90;999.90;;;12.60;85.00;;;;;;5115469;28;20523;-81
2021/10/26 11:31:45;;;;;;;1999.90;999.90;;;12.60;84.50;;;;;;5116273;28;20087;-81
2021/10/26 11:34:32;;;;;;;1999.90;999.90;;;12.70;85.00;;;;;;5097881;28;20061;-82
2021/10/26 11:37:06;;;;;;;1999.90;999.90;;;12.70;84.90;;;;;;5097808;28;20379;-80
2021/10/26 11:39:33;;;;;;;1999.90;999.90;;;12.90;84.30;;;;;;5097173;28;20024;-81
2021/10/26 11:41:59;;;;;;;1999.90;999.90;;;12.90;83.10;;;;;;5097908;28;20023;-82
2021/10/26 11:44:27;;;;;;;1999.90;999.90;;;12.90;82.30;;;;;;5097604;28;20031;-82
2021/10/26 11:46:53;;;;;;;1999.90;999.90;;;12.90;83.50;;;;;;5097896;28;20027;-82
2021/10/26 11:49:22;;;;;;;1999.90;999.90;;;12.90;83.90;;;;;;5097355;28;20400;-82
2021/10/26 11:52:03;;;;;;;1999.90;999.90;;;12.90;82.50;;;;;;5097917;28;20024;-81
2021/10/26 11:54:35;;;;;;;1999.90;999.90;;;13.00;82.30;;;;;;5097386;28;20144;-82
2021/10/26 11:57:04;;;;;;;1999.90;999.90;;;13.00;81.30;;;;;;5097436;28;20023;-82
2021/10/26 11:59:31;;;;;;;1999.90;999.90;;;13.00;82.40;;;;;;5097363;28;20047;-82
2021/10/26 12:02:06;;;;;;;1999.90;999.90;;;13.00;81.60;;;;;;5097605;28;20024;-82
2021/10/26 12:04:35;;;;;;;;;;;13.10;80.30;;;;;;5097568;28;20031;-82
2021/10/26 12:07:06;;;;;;;1999.90;999.90;;;13.10;80.50;;;;;;5097376;28;19908;-81
2021/10/26 12:09:35;;;;;;;1999.90;999.90;;;13.10;80.00;;;;;;5097222;28;20076;-82
2021/10/26 12:12:09;;;;;;;1999.90;999.90;;;13.00;80.90;;;;;;5096768;28;20028;-82
2021/10/26 12:14:37;;;;;;;1999.90;999.90;;;13.10;80.30;;;;;;5097307;28;20367;-81